createdAt,value
2022-08-10T00:01:54.656Z,101240.53
2022-08-10T00:04:24.797Z,101236.44
2022-08-10T00:06:55.118Z,101234.80
2022-08-10T00:09:24.928Z,101232.45
2022-08-10T00:11:53.501Z,101236.16
2022-08-10T00:14:22.012Z,101233.04
2022-08-10T00:16:50.716Z,101229.69
2022-08-10T00:19:19.269Z,101230.77
2022-08-10T00:21:48.260Z,101229.70
2022-08-10T00:24:16.997Z,101229.21
2022-08-10T00:27:52.856Z,101225.52
2022-08-10T00:29:34.275Z,101221.90
2022-08-10T00:32:03.365Z,101223.73
2022-08-10T00:34:33.484Z,101222.11
2022-08-10T00:37:02.216Z,101224.75
2022-08-10T00:39:34.503Z,101227.23
2022-08-10T00:42:10.772Z,101225.58
2022-08-10T00:44:46.476Z,101226.89
2022-08-10T00:47:21.319Z,101225.39
2022-08-10T00:50:06.340Z,101226.02
2022-08-10T00:52:36.814Z,101228.42
2022-08-10T00:55:06.338Z,101222.83
2022-08-10T00:57:35.685Z,101225.15
2022-08-10T01:00:07.370Z,101224.83
2022-08-10T01:02:36.381Z,101227.64
2022-08-10T01:05:10.690Z,101227.61
2022-08-10T01:08:07.381Z,101227.49
2022-08-10T01:10:45.669Z,101226.63
2022-08-10T01:13:38.058Z,101228.48
2022-08-10T01:16:18.711Z,101229.36
2022-08-10T01:19:11.732Z,101231.74
2022-08-10T01:22:29.962Z,101230.23
2022-08-10T01:25:28.956Z,101231.99
2022-08-10T01:28:19.518Z,101231.95
2022-08-10T01:30:53.949Z,101235.50
2022-08-10T01:33:57.879Z,101236.86
2022-08-10T01:36:35.451Z,101233.45
2022-08-10T01:39:06.611Z,101232.88
2022-08-10T01:41:46.575Z,101231.98
2022-08-10T01:44:25.512Z,101232.13
2022-08-10T01:47:22.637Z,101227.96
2022-08-10T01:50:08.298Z,101234.73
2022-08-10T01:52:43.219Z,101229.73
2022-08-10T01:55:14.065Z,101227.56
2022-08-10T01:57:46.049Z,101227.30
2022-08-10T02:00:15.103Z,101224.27
2022-08-10T02:02:45.321Z,101225.92
2022-08-10T02:05:16.539Z,101223.80
2022-08-10T02:07:48.263Z,101224.92
2022-08-10T02:10:19.438Z,101224.51
2022-08-10T02:12:50.203Z,101223.59
2022-08-10T02:15:20.957Z,101217.29
2022-08-10T02:18:00.212Z,101218.08
2022-08-10T02:20:41.644Z,101217.35
2022-08-10T02:23:28.856Z,101216.95
2022-08-10T02:26:00.822Z,101218.81
2022-08-10T02:28:33.784Z,101219.45
2022-08-10T02:31:11.401Z,101223.38
2022-08-10T02:33:57.666Z,101220.81
2022-08-10T02:36:32.987Z,101221.63
2022-08-10T02:39:06.225Z,101219.48
2022-08-10T02:42:17.890Z,101220.06
2022-08-10T02:45:30.833Z,101219.34
2022-08-10T02:48:20.160Z,101221.52
2022-08-10T02:51:00.232Z,101217.21
2022-08-10T02:53:56.651Z,101223.17
2022-08-10T02:56:26.788Z,101221.64
2022-08-10T02:59:05.822Z,101221.34
2022-08-10T03:01:43.065Z,101222.64
2022-08-10T03:04:56.023Z,101221.20
2022-08-10T03:07:43.319Z,101225.11
2022-08-10T03:10:26.938Z,101226.34
2022-08-10T03:13:04.355Z,101225.91
2022-08-10T03:15:36.622Z,101226.65
2022-08-10T03:18:06.264Z,101227.66
2022-08-10T03:20:40.971Z,101226.48
2022-08-10T03:23:15.068Z,101225.40
2022-08-10T03:25:53.779Z,101227.52
2022-08-10T03:28:29.182Z,101225.08
2022-08-10T03:31:00.678Z,101222.98
2022-08-10T03:33:34.991Z,101224.27
2022-08-10T03:36:43.986Z,101227.36
2022-08-10T03:38:53.247Z,101230.64
2022-08-10T03:41:53.666Z,101232.86
2022-08-10T03:44:31.823Z,101236.75
2022-08-10T03:47:02.260Z,101236.84
2022-08-10T03:49:32.913Z,101236.48
2022-08-10T03:52:02.067Z,101238.84
2022-08-10T03:54:30.700Z,101242.90
2022-08-10T03:56:59.735Z,101240.73
2022-08-10T03:59:31.503Z,101248.17
2022-08-10T04:02:45.530Z,101253.22
2022-08-10T04:04:50.126Z,101253.09
2022-08-10T04:07:18.886Z,101255.48
2022-08-10T04:09:55.441Z,101257.92
2022-08-10T04:12:25.188Z,101257.49
2022-08-10T04:14:54.023Z,101256.43
2022-08-10T04:18:03.772Z,101259.94
2022-08-10T04:20:34.308Z,101257.31
2022-08-10T04:23:14.062Z,101259.16
2022-08-10T04:25:42.864Z,101259.05
2022-08-10T04:28:12.980Z,101254.08
2022-08-10T04:30:43.495Z,101256.34
2022-08-10T04:33:15.587Z,101257.39
2022-08-10T04:35:46.679Z,101258.00
2022-08-10T04:38:17.228Z,101258.88
2022-08-10T04:40:47.593Z,101258.88
2022-08-10T04:43:16.352Z,101259.17
2022-08-10T04:45:47.237Z,101261.59
2022-08-10T04:48:43.325Z,101266.27
2022-08-10T04:51:06.196Z,101269.86
2022-08-10T04:54:04.411Z,101268.88
2022-08-10T04:56:32.102Z,101267.06
2022-08-10T04:59:01.095Z,101269.99
2022-08-10T05:01:37.776Z,101268.34
2022-08-10T05:04:36.984Z,101270.46
2022-08-10T05:07:16.477Z,101272.40
2022-08-10T05:10:04.001Z,101275.39
2022-08-10T05:12:38.666Z,101279.09
2022-08-10T05:15:13.688Z,101280.43
2022-08-10T05:18:03.578Z,101281.20
2022-08-10T05:20:31.803Z,101279.63
2022-08-10T05:23:00.359Z,101286.11
2022-08-10T05:25:29.036Z,101287.71
2022-08-10T05:28:05.810Z,101290.30
2022-08-10T05:30:35.199Z,101289.17
2022-08-10T05:33:08.228Z,101291.55
2022-08-10T05:35:56.520Z,101290.23
2022-08-10T05:38:28.461Z,101292.64
2022-08-10T05:40:57.987Z,101291.50
2022-08-10T05:43:27.181Z,101292.01
2022-08-10T05:46:19.999Z,101292.00
2022-08-10T05:48:59.587Z,101293.88
2022-08-10T05:51:32.127Z,101294.97
2022-08-10T05:54:06.245Z,101297.59
2022-08-10T05:56:55.788Z,101296.66
2022-08-10T06:00:34.194Z,101298.98
2022-08-10T06:03:03.593Z,101298.03
2022-08-10T06:05:39.650Z,101302.66
2022-08-10T06:08:19.389Z,101307.67
2022-08-10T06:12:25.591Z,101304.20
2022-08-10T06:14:15.757Z,101303.67
2022-08-10T06:16:45.778Z,101307.62
2022-08-10T06:19:18.425Z,101301.13
2022-08-10T06:22:01.283Z,101300.91
2022-08-10T06:25:12.233Z,101301.46
2022-08-10T06:27:38.179Z,101300.52
2022-08-10T06:30:21.848Z,101303.17
2022-08-10T06:33:05.184Z,101296.71
2022-08-10T06:35:34.932Z,101298.63
2022-08-10T06:38:06.694Z,101301.55
2022-08-10T06:40:39.680Z,101302.23
2022-08-10T06:43:15.562Z,101302.11
2022-08-10T06:46:07.915Z,101300.63
2022-08-10T06:48:55.512Z,101299.73
2022-08-10T06:51:31.043Z,101302.71
2022-08-10T06:54:12.646Z,101301.61
2022-08-10T06:56:56.011Z,101300.64
2022-08-10T07:00:24.302Z,101303.35
2022-08-10T07:03:09.935Z,101298.20
2022-08-10T07:05:47.983Z,101302.94
2022-08-10T07:08:23.673Z,101303.11
2022-08-10T07:10:54.767Z,101303.54
2022-08-10T07:14:16.507Z,101302.64
2022-08-10T07:16:14.600Z,101302.37
2022-08-10T07:19:21.673Z,101299.58
2022-08-10T07:21:51.640Z,101302.04
2022-08-10T07:24:28.587Z,101300.79
2022-08-10T07:26:58.752Z,101300.70
2022-08-10T07:29:53.319Z,101301.13
2022-08-10T07:32:33.691Z,101299.44
2022-08-10T07:35:11.149Z,101301.44
2022-08-10T07:37:43.986Z,101299.76
2022-08-10T07:40:16.479Z,101298.60
2022-08-10T07:42:50.965Z,101300.38
2022-08-10T07:45:25.983Z,101298.88
2022-08-10T07:48:22.874Z,101298.29
2022-08-10T07:50:55.419Z,101299.98
2022-08-10T07:53:28.151Z,101301.44
2022-08-10T07:56:05.738Z,101298.52
2022-08-10T07:58:51.787Z,101295.06
2022-08-10T08:01:28.163Z,101294.34
2022-08-10T08:04:05.303Z,101295.40
2022-08-10T08:06:44.336Z,101300.20
2022-08-10T08:09:16.505Z,101299.68
2022-08-10T08:11:47.603Z,101299.59
2022-08-10T08:14:17.377Z,101296.55
2022-08-10T08:16:52.428Z,101299.75
2022-08-10T08:19:50.212Z,101297.98
2022-08-10T08:24:05.726Z,101300.24
2022-08-10T08:25:37.236Z,101297.16
2022-08-10T08:28:13.020Z,101300.94
2022-08-10T08:30:45.690Z,101298.93
2022-08-10T08:33:41.066Z,101298.80
2022-08-10T08:36:09.187Z,101297.27
2022-08-10T08:38:41.824Z,101293.48
2022-08-10T08:41:47.577Z,101292.82
2022-08-10T08:44:50.439Z,101293.81
2022-08-10T08:48:03.300Z,101287.70
2022-08-10T08:50:57.456Z,101289.40
2022-08-10T08:54:37.585Z,101287.58
2022-08-10T08:57:49.495Z,101290.05
2022-08-10T09:00:39.019Z,101283.05
2022-08-10T09:04:26.161Z,101284.55
2022-08-10T09:08:06.326Z,101284.87
2022-08-10T09:11:24.382Z,101287.70
2022-08-10T09:14:25.391Z,101279.75
2022-08-10T09:17:29.385Z,101278.51
2022-08-10T09:20:19.531Z,101276.92
2022-08-10T09:24:04.329Z,101279.67
2022-08-10T09:26:45.292Z,101274.58
2022-08-10T09:29:27.881Z,101275.70
2022-08-10T09:36:15.282Z,101270.64
2022-08-10T09:36:20.172Z,101268.93
2022-08-10T09:38:21.643Z,101269.34
2022-08-10T09:41:13.355Z,101264.70
2022-08-10T09:44:09.225Z,101270.09
2022-08-10T09:47:08.264Z,101271.71
2022-08-10T09:49:56.314Z,101269.48
2022-08-10T09:53:11.176Z,101270.70
2022-08-10T09:56:17.824Z,101266.95
2022-08-10T09:59:56.746Z,101262.91
2022-08-10T10:02:58.578Z,101254.59
2022-08-10T10:06:17.545Z,101251.98
2022-08-10T10:09:10.229Z,101252.50
2022-08-10T10:12:14.636Z,101248.10
2022-08-10T10:15:24.209Z,101246.36
2022-08-10T10:18:03.489Z,101244.34
2022-08-10T10:20:58.555Z,101247.48
2022-08-10T10:24:21.668Z,101239.58
2022-08-10T10:27:16.042Z,101242.33
2022-08-10T10:30:09.778Z,101231.20
2022-08-10T10:32:57.779Z,101233.73
2022-08-10T10:36:14.509Z,101229.89
2022-08-10T10:38:44.616Z,101225.36
2022-08-10T10:41:57.317Z,101228.38
2022-08-10T10:45:08.309Z,101226.69
2022-08-10T10:48:33.867Z,101221.81
2022-08-10T10:51:48.366Z,101220.88
2022-08-10T10:54:33.308Z,101214.70
2022-08-10T10:57:13.883Z,101205.70
2022-08-10T10:59:55.538Z,101214.67
2022-08-10T11:02:46.725Z,101215.56
2022-08-10T11:05:47.378Z,101221.30
2022-08-10T11:09:08.622Z,101217.80
2022-08-10T11:12:43.536Z,101217.52
2022-08-10T11:16:33.713Z,101219.65
2022-08-10T11:20:08.988Z,101215.84
2022-08-10T11:22:59.437Z,101215.86
2022-08-10T11:25:31.918Z,101211.52
2022-08-10T11:28:30.340Z,101207.63
2022-08-10T11:31:15.720Z,101205.54
2022-08-10T11:34:11.335Z,101200.10
2022-08-10T11:38:34.718Z,101197.54
2022-08-10T11:42:06.465Z,101194.56
2022-08-10T11:44:03.492Z,101195.91
2022-08-10T11:46:34.985Z,101190.50
2022-08-10T11:49:32.222Z,101191.41
2022-08-10T11:52:16.010Z,101192.80
2022-08-10T11:54:54.457Z,101188.96
2022-08-10T11:57:54.733Z,101188.11
2022-08-10T12:00:33.655Z,101184.30
2022-08-10T12:03:12.744Z,101183.27
2022-08-10T12:06:45.445Z,101181.57
2022-08-10T12:10:03.841Z,101176.84
2022-08-10T12:12:03.192Z,101179.64
2022-08-10T12:14:42.995Z,101182.23
2022-08-10T12:17:40.518Z,101178.56
2022-08-10T12:20:31.061Z,101179.07
2022-08-10T12:23:22.593Z,101180.59
2022-08-10T12:26:19.230Z,101178.41
2022-08-10T12:29:22.438Z,101170.60
2022-08-10T12:33:06.575Z,101167.49
2022-08-10T12:36:14.840Z,101162.08
2022-08-10T12:39:07.373Z,101160.86
2022-08-10T12:42:38.697Z,101157.66
2022-08-10T12:46:05.861Z,101160.30
2022-08-10T12:49:10.642Z,101156.52
2022-08-10T12:52:11.443Z,101150.48
2022-08-10T12:54:59.723Z,101149.39
2022-08-10T12:57:29.881Z,101144.09
2022-08-10T13:00:03.032Z,101135.98
2022-08-10T13:02:48.599Z,101131.74
2022-08-10T13:06:08.673Z,101125.63
2022-08-10T13:08:57.193Z,101134.73
2022-08-10T13:12:38.989Z,101135.43
2022-08-10T13:14:58.188Z,101133.14
2022-08-10T13:17:39.418Z,101130.77
2022-08-10T13:20:38.129Z,101127.73
2022-08-10T13:23:20.781Z,101127.02
2022-08-10T13:26:01.731Z,101122.63
2022-08-10T13:28:47.305Z,101119.69
2022-08-10T13:32:03.634Z,101114.90
2022-08-10T13:34:42.809Z,101110.65
2022-08-10T13:37:19.360Z,101111.00
2022-08-10T13:42:51.760Z,101107.65
2022-08-10T13:45:57.365Z,101112.73
2022-08-10T13:51:55.087Z,101106.88
2022-08-10T13:57:14.569Z,101111.34
2022-08-10T14:00:35.010Z,101111.05
2022-08-10T14:02:55.495Z,101111.52
2022-08-10T14:05:50.954Z,101106.55
2022-08-10T14:08:51.850Z,101103.93
2022-08-10T14:11:23.540Z,101099.90
2022-08-10T14:14:07.665Z,101093.48
2022-08-10T14:16:42.619Z,101090.80
2022-08-10T14:19:37.831Z,101086.98
2022-08-10T14:22:19.733Z,101087.73
2022-08-10T14:25:13.831Z,101084.20
2022-08-10T14:28:06.926Z,101083.70
2022-08-10T14:30:46.466Z,101084.33
2022-08-10T14:33:27.349Z,101093.89
2022-08-10T14:38:39.264Z,101091.10
2022-08-10T14:42:02.764Z,101090.60
2022-08-10T14:44:13.846Z,101096.48
2022-08-10T14:46:53.581Z,101094.16
2022-08-10T14:49:27.219Z,101093.23
2022-08-10T14:52:03.439Z,101091.98
2022-08-10T14:54:35.126Z,101097.02
2022-08-10T14:57:17.069Z,101094.02
2022-08-10T15:00:22.819Z,101093.13
2022-08-10T15:02:53.172Z,101090.13
2022-08-10T15:05:41.678Z,101083.89
2022-08-10T15:08:12.213Z,101077.77
2022-08-10T15:10:42.376Z,101077.73
2022-08-10T15:13:33.770Z,101074.70
2022-08-10T15:16:13.956Z,101073.25
2022-08-10T15:18:58.496Z,101071.31
2022-08-10T15:21:42.804Z,101070.36
2022-08-10T15:24:37.003Z,101073.09
2022-08-10T15:27:09.025Z,101076.04
2022-08-10T15:29:57.021Z,101074.48
2022-08-10T15:32:57.183Z,101074.93
2022-08-10T15:35:48.367Z,101069.30
2022-08-10T15:38:34.945Z,101065.63
2022-08-10T15:41:11.139Z,101063.03
2022-08-10T15:43:44.412Z,101065.13
2022-08-10T15:46:46.419Z,101067.86
2022-08-10T15:49:51.935Z,101066.54
2022-08-10T15:53:02.087Z,101066.01
2022-08-10T15:55:53.786Z,101062.11
2022-08-10T15:58:37.614Z,101063.81
2022-08-10T16:02:12.703Z,101062.33
2022-08-10T16:04:40.959Z,101062.95
2022-08-10T16:07:22.762Z,101060.02
2022-08-10T16:10:26.048Z,101058.88
2022-08-10T16:13:50.292Z,101055.46
2022-08-10T16:16:24.913Z,101052.52
2022-08-10T16:19:22.593Z,101053.95
2022-08-10T16:22:02.063Z,101053.88
2022-08-10T16:24:37.185Z,101052.25
2022-08-10T16:27:08.633Z,101052.58
2022-08-10T16:29:56.024Z,101048.85
2022-08-10T16:32:28.170Z,101042.30
2022-08-10T16:35:22.010Z,101036.34
2022-08-10T16:37:57.908Z,101039.48
2022-08-10T16:40:30.101Z,101036.61
2022-08-10T16:43:03.528Z,101035.80
2022-08-10T16:45:40.231Z,101030.49
2022-08-10T16:48:10.089Z,101031.46
2022-08-10T16:50:45.471Z,101027.29
2022-08-10T16:53:21.342Z,101031.73
2022-08-10T16:56:05.306Z,101031.70
2022-08-10T16:58:41.117Z,101026.17
2022-08-10T17:01:18.951Z,101028.36
2022-08-10T17:04:06.814Z,101024.66
2022-08-10T17:07:01.197Z,101025.73
2022-08-10T17:09:34.981Z,101022.00
2022-08-10T17:12:11.702Z,101028.80
2022-08-10T17:14:43.483Z,101026.01
2022-08-10T17:17:22.774Z,101023.00
2022-08-10T17:19:56.583Z,101023.52
2022-08-10T17:22:46.416Z,101021.02
2022-08-10T17:25:21.341Z,101024.59
2022-08-10T17:28:04.797Z,101023.66
2022-08-10T17:30:58.185Z,101022.30
2022-08-10T17:33:32.471Z,101020.46
2022-08-10T17:36:07.625Z,101021.29
2022-08-10T17:38:56.029Z,101024.70
2022-08-10T17:41:30.762Z,101020.78
2022-08-10T17:44:03.440Z,101017.93
2022-08-10T17:46:41.086Z,101014.00
2022-08-10T17:49:13.725Z,101004.22
2022-08-10T17:51:50.492Z,101004.78
2022-08-10T17:54:48.487Z,101002.13
2022-08-10T17:57:24.374Z,101004.14
2022-08-10T17:59:55.387Z,101003.44
2022-08-10T18:02:47.458Z,101005.15
2022-08-10T18:05:16.827Z,101005.92
2022-08-10T18:07:57.964Z,101009.94
2022-08-10T18:10:30.591Z,101011.30
2022-08-10T18:13:01.671Z,101015.12
2022-08-10T18:15:38.152Z,101019.20
2022-08-10T18:18:16.836Z,101018.15
2022-08-10T18:20:46.529Z,101019.66
2022-08-10T18:23:15.449Z,101022.86
2022-08-10T18:25:50.748Z,101021.81
2022-08-10T18:28:23.494Z,101023.02
2022-08-10T18:30:55.591Z,101026.93
2022-08-10T18:33:31.200Z,101030.48
2022-08-10T18:36:07.726Z,101031.47
2022-08-10T18:38:39.692Z,101035.36
2022-08-10T18:41:39.407Z,101037.42
2022-08-10T18:45:05.192Z,101038.95
2022-08-10T18:48:04.534Z,101041.02
2022-08-10T18:50:40.880Z,101041.36
2022-08-10T18:53:26.598Z,101045.80
2022-08-10T18:56:10.279Z,101045.77
2022-08-10T18:59:02.520Z,101043.39
2022-08-10T19:02:36.564Z,101041.61
2022-08-10T19:06:07.325Z,101042.29
2022-08-10T19:09:09.727Z,101043.29
2022-08-10T19:12:30.169Z,101044.67
2022-08-10T19:15:06.546Z,101046.49
2022-08-10T19:18:03.202Z,101047.27
2022-08-10T19:21:09.753Z,101049.20
2022-08-10T19:23:51.791Z,101049.63
2022-08-10T19:26:44.737Z,101051.79
2022-08-10T19:30:09.187Z,101049.05
2022-08-10T19:33:24.866Z,101050.72
2022-08-10T19:36:13.778Z,101052.75
2022-08-10T19:39:32.079Z,101049.54
2022-08-10T19:42:31.145Z,101051.88
2022-08-10T19:45:55.962Z,101057.69
2022-08-10T19:49:17.186Z,101053.64
2022-08-10T19:52:11.220Z,101053.27
2022-08-10T19:55:23.339Z,101046.45
2022-08-10T19:58:46.175Z,101046.55
2022-08-10T20:01:56.553Z,101043.77
2022-08-10T20:04:57.047Z,101043.05
2022-08-10T20:07:51.324Z,101043.98
2022-08-10T20:10:41.121Z,101042.88
2022-08-10T20:13:25.959Z,101044.77
2022-08-10T20:16:07.168Z,101048.63
2022-08-10T20:18:51.763Z,101050.27
2022-08-10T20:21:47.561Z,101048.70
2022-08-10T20:24:44.266Z,101055.85
2022-08-10T20:27:58.200Z,101057.77
2022-08-10T20:30:20.452Z,101060.04
2022-08-10T20:33:41.719Z,101057.45
2022-08-10T20:37:00.456Z,101059.30
2022-08-10T20:39:56.839Z,101059.76
2022-08-10T20:42:47.637Z,101057.02
2022-08-10T20:46:05.154Z,101060.50
2022-08-10T20:48:38.181Z,101062.48
2022-08-10T20:51:14.097Z,101059.19
2022-08-10T20:53:51.987Z,101055.00
2022-08-10T20:57:54.891Z,101059.09
2022-08-10T21:00:10.886Z,101059.02
2022-08-10T21:03:15.761Z,101060.95
2022-08-10T21:06:41.419Z,101063.73
2022-08-10T21:09:50.721Z,101062.33
2022-08-10T21:12:46.808Z,101061.76
2022-08-10T21:15:57.468Z,101061.33
2022-08-10T21:19:05.496Z,101062.65
2022-08-10T21:22:04.462Z,101061.08
2022-08-10T21:25:03.014Z,101060.89
2022-08-10T21:27:56.113Z,101059.36
2022-08-10T21:31:22.064Z,101059.08
2022-08-10T21:34:17.162Z,101055.45
2022-08-10T21:37:56.800Z,101052.05
2022-08-10T21:41:18.257Z,101046.67
2022-08-10T21:44:35.398Z,101043.81
2022-08-10T21:48:17.936Z,101048.13
2022-08-10T21:51:16.675Z,101056.39
2022-08-10T21:55:00.892Z,101052.95
2022-08-10T21:58:28.548Z,101052.02
2022-08-10T22:01:39.596Z,101053.13
2022-08-10T22:04:27.397Z,101051.61
2022-08-10T22:07:20.139Z,101052.77
2022-08-10T22:10:11.120Z,101050.64
2022-08-10T22:13:08.554Z,101049.73
2022-08-10T22:16:11.013Z,101051.95
2022-08-10T22:19:04.782Z,101053.83
2022-08-10T22:22:20.090Z,101048.98
2022-08-10T22:26:08.465Z,101052.54
2022-08-10T22:29:12.462Z,101054.08
2022-08-10T22:32:08.445Z,101051.59
2022-08-10T22:35:23.103Z,101049.14
2022-08-10T22:38:47.922Z,101048.98
2022-08-10T22:42:11.115Z,101044.80
2022-08-10T22:45:04.759Z,101043.59
2022-08-10T22:47:52.199Z,101044.58
2022-08-10T22:50:28.321Z,101044.10
2022-08-10T22:53:08.842Z,101040.66
2022-08-10T22:56:05.785Z,101041.02
2022-08-10T22:58:40.122Z,101042.87
2022-08-10T23:01:40.770Z,101036.95
2022-08-10T23:04:27.128Z,101038.55
2022-08-10T23:07:23.596Z,101038.85
2022-08-10T23:10:03.070Z,101035.20
2022-08-10T23:12:49.976Z,101038.66
2022-08-10T23:15:55.326Z,101037.14
2022-08-10T23:18:58.735Z,101036.83
2022-08-10T23:22:02.878Z,101042.39
2022-08-10T23:24:58.692Z,101040.02
2022-08-10T23:27:38.359Z,101041.69
2022-08-10T23:30:17.109Z,101034.52
2022-08-10T23:32:52.081Z,101035.92
2022-08-10T23:36:08.769Z,101034.36
2022-08-10T23:48:25.143Z,101034.52
2022-08-10T23:51:01.331Z,101034.05
2022-08-10T23:53:37.015Z,101036.65
2022-08-10T23:56:27.021Z,101036.65
2022-08-10T23:58:58.560Z,101038.08
